createdAt,value
2023-04-15T00:01:43.136Z,100175.55
2023-04-15T00:04:11.143Z,100173.64
2023-04-15T00:06:41.848Z,100171.42
2023-04-15T00:09:10.156Z,100177.05
2023-04-15T00:11:38.094Z,100175.67
2023-04-15T00:14:08.561Z,100180.91
2023-04-15T00:16:37.302Z,100173.89
2023-04-15T00:19:05.216Z,100175.54
2023-04-15T00:21:33.584Z,100173.56
2023-04-15T00:24:01.999Z,100178.47
2023-04-15T00:26:30.512Z,100169.21
2023-04-15T00:29:02.509Z,100173.55
2023-04-15T00:31:31.601Z,100162.80
2023-04-15T00:34:00.206Z,100159.22
2023-04-15T00:36:35.733Z,100167.34
2023-04-15T00:39:04.009Z,100164.95
2023-04-15T00:41:34.080Z,100164.77
2023-04-15T00:44:08.609Z,100161.14
2023-04-15T00:46:38.445Z,100159.48
2023-04-15T00:49:07.026Z,100161.00
2023-04-15T00:51:37.003Z,100163.13
2023-04-15T00:54:06.072Z,100159.48
2023-04-15T00:56:40.966Z,100162.55
2023-04-15T00:59:09.440Z,100164.89
2023-04-15T01:01:37.559Z,100163.44
2023-04-15T01:04:07.183Z,100163.98
2023-04-15T01:06:35.932Z,100164.79
2023-04-15T01:09:04.283Z,100167.00
2023-04-15T01:11:36.350Z,100166.83
2023-04-15T01:14:04.653Z,100167.84
2023-04-15T01:16:32.908Z,100168.10
2023-04-15T01:19:01.339Z,100161.73
2023-04-15T01:21:29.990Z,100163.86
2023-04-15T01:23:58.527Z,100164.38
2023-04-15T01:26:27.527Z,100165.83
2023-04-15T01:28:56.515Z,100167.44
2023-04-15T01:31:25.554Z,100176.27
2023-04-15T01:33:56.086Z,100175.80
2023-04-15T01:36:24.096Z,100180.62
2023-04-15T01:39:00.574Z,100179.89
2023-04-15T01:41:28.925Z,100182.08
2023-04-15T01:43:57.588Z,100178.71
2023-04-15T01:46:26.580Z,100176.73
2023-04-15T01:48:54.854Z,100175.42
2023-04-15T01:51:23.308Z,100176.13
2023-04-15T01:53:52.469Z,100172.45
2023-04-15T01:56:20.760Z,100173.20
2023-04-15T01:58:49.074Z,100177.70
2023-04-15T02:01:19.656Z,100181.51
2023-04-15T02:03:48.811Z,100182.15
2023-04-15T02:06:17.216Z,100179.47
2023-04-15T02:08:45.411Z,100182.90
2023-04-15T02:11:14.778Z,100188.11
2023-04-15T02:13:42.823Z,100184.26
2023-04-15T02:16:18.198Z,100192.52
2023-04-15T02:18:54.387Z,100195.12
2023-04-15T02:21:22.760Z,100198.90
2023-04-15T02:23:52.290Z,100204.28
2023-04-15T02:26:25.097Z,100203.92
2023-04-15T02:28:55.642Z,100200.84
2023-04-15T02:31:23.639Z,100208.88
2023-04-15T02:33:51.770Z,100214.84
2023-04-15T02:36:21.417Z,100211.20
2023-04-15T02:38:49.401Z,100209.85
2023-04-15T02:41:20.517Z,100209.12
2023-04-15T02:43:48.525Z,100208.74
2023-04-15T02:46:17.083Z,100207.97
2023-04-15T02:48:46.588Z,100212.55
2023-04-15T02:51:15.912Z,100223.59
2023-04-15T02:53:43.940Z,100231.88
2023-04-15T02:56:17.324Z,100234.98
2023-04-15T02:58:50.720Z,100236.13
2023-04-15T03:01:20.711Z,100240.15
2023-04-15T03:03:48.938Z,100237.54
2023-04-15T03:06:17.109Z,100237.05
2023-04-15T03:08:45.775Z,100240.92
2023-04-15T03:11:15.243Z,100239.97
2023-04-15T03:13:45.158Z,100240.44
2023-04-15T03:16:24.691Z,100242.45
2023-04-15T03:18:52.995Z,100247.13
2023-04-15T03:21:21.347Z,100245.64
2023-04-15T03:23:49.801Z,100250.96
2023-04-15T03:26:29.686Z,100254.90
2023-04-15T03:29:00.823Z,100249.77
2023-04-15T03:31:31.119Z,100252.82
2023-04-15T03:33:59.200Z,100257.23
2023-04-15T03:36:29.669Z,100259.65
2023-04-15T03:38:59.289Z,100259.64
2023-04-15T03:41:28.887Z,100264.10
2023-04-15T03:43:59.277Z,100260.42
2023-04-15T03:46:27.855Z,100251.75
2023-04-15T03:48:56.299Z,100255.48
2023-04-15T03:51:24.856Z,100253.20
2023-04-15T03:53:52.807Z,100250.14
2023-04-15T03:56:21.131Z,100247.55
2023-04-15T03:58:51.597Z,100246.99
2023-04-15T04:01:19.924Z,100249.93
2023-04-15T04:03:48.415Z,100254.30
2023-04-15T04:06:20.312Z,100249.70
2023-04-15T04:08:49.731Z,100252.45
2023-04-15T04:11:17.621Z,100256.85
2023-04-15T04:13:48.181Z,100257.02
2023-04-15T04:16:16.700Z,100260.88
2023-04-15T04:18:45.144Z,100261.77
2023-04-15T04:21:13.058Z,100253.13
2023-04-15T04:23:43.669Z,100251.64
2023-04-15T04:26:11.913Z,100252.31
2023-04-15T04:28:40.766Z,100256.69
2023-04-15T04:31:09.373Z,100258.02
2023-04-15T04:33:39.072Z,100261.28
2023-04-15T04:36:07.370Z,100267.42
2023-04-15T04:38:41.463Z,100266.45
2023-04-15T04:41:09.680Z,100267.94
2023-04-15T04:43:37.744Z,100270.15
2023-04-15T04:46:06.366Z,100271.77
2023-04-15T04:48:36.463Z,100269.50
2023-04-15T04:51:04.366Z,100271.27
2023-04-15T04:53:33.852Z,100272.80
2023-04-15T04:56:01.769Z,100277.06
2023-04-15T04:58:30.138Z,100274.70
2023-04-15T05:01:00.058Z,100271.55
2023-04-15T05:03:28.237Z,100268.11
2023-04-15T05:05:56.886Z,100267.63
2023-04-15T05:08:29.598Z,100269.45
2023-04-15T05:10:57.842Z,100274.02
2023-04-15T05:13:25.850Z,100273.02
2023-04-15T05:15:53.782Z,100275.38
2023-04-15T05:18:23.520Z,100277.78
2023-04-15T05:20:51.838Z,100280.06
2023-04-15T05:23:20.027Z,100284.74
2023-04-15T05:25:49.975Z,100280.96
2023-04-15T05:28:18.366Z,100286.56
2023-04-15T05:30:46.512Z,100279.90
2023-04-15T05:33:16.047Z,100283.08
2023-04-15T05:35:44.016Z,100284.52
2023-04-15T05:38:11.936Z,100286.92
2023-04-15T05:40:39.850Z,100286.58
2023-04-15T05:43:08.427Z,100283.67
2023-04-15T05:45:42.536Z,100290.42
2023-04-15T05:48:10.920Z,100284.95
2023-04-15T05:50:42.043Z,100289.46
2023-04-15T05:53:13.654Z,100292.50
2023-04-15T05:55:42.610Z,100288.91
2023-04-15T05:58:10.526Z,100287.98
2023-04-15T06:00:41.005Z,100292.83
2023-04-15T06:03:11.953Z,100286.05
2023-04-15T06:05:40.784Z,100291.34
2023-04-15T06:08:09.140Z,100283.79
2023-04-15T06:10:37.273Z,100286.63
2023-04-15T06:13:05.931Z,100285.11
2023-04-15T06:15:34.203Z,100284.86
2023-04-15T06:18:02.398Z,100286.98
2023-04-15T06:20:30.659Z,100287.23
2023-04-15T06:22:59.116Z,100289.67
2023-04-15T06:25:27.091Z,100292.70
2023-04-15T06:27:56.263Z,100295.52
2023-04-15T06:30:24.556Z,100295.08
2023-04-15T06:32:53.663Z,100297.92
2023-04-15T06:35:22.217Z,100305.67
2023-04-15T06:37:50.366Z,100304.83
2023-04-15T06:40:18.870Z,100307.23
2023-04-15T06:42:46.802Z,100308.27
2023-04-15T06:45:19.005Z,100308.45
2023-04-15T06:47:49.617Z,100313.17
2023-04-15T06:50:17.687Z,100321.33
2023-04-15T06:52:50.190Z,100315.81
2023-04-15T06:55:18.170Z,100319.52
2023-04-15T06:57:46.504Z,100326.48
2023-04-15T07:00:19.068Z,100331.73
2023-04-15T07:02:47.317Z,100331.21
2023-04-15T07:05:16.280Z,100332.80
2023-04-15T07:07:47.434Z,100323.08
2023-04-15T07:10:15.953Z,100326.77
2023-04-15T07:12:44.178Z,100334.95
2023-04-15T07:15:12.617Z,100334.03
2023-04-15T07:17:44.593Z,100334.16
2023-04-15T07:20:14.056Z,100329.51
2023-04-15T07:22:42.179Z,100332.55
2023-04-15T07:25:13.142Z,100335.15
2023-04-15T07:27:41.779Z,100332.29
2023-04-15T07:30:10.783Z,100335.98
2023-04-15T07:32:38.697Z,100339.91
2023-04-15T07:35:06.899Z,100346.36
2023-04-15T07:37:35.755Z,100341.05
2023-04-15T07:40:05.146Z,100342.80
2023-04-15T07:42:37.398Z,100337.94
2023-04-15T07:45:07.140Z,100340.23
2023-04-15T07:47:35.238Z,100338.55
2023-04-15T07:50:03.304Z,100340.48
2023-04-15T07:52:39.225Z,100343.38
2023-04-15T07:55:10.852Z,100353.95
2023-04-15T07:57:40.096Z,100357.09
2023-04-15T08:00:09.959Z,100355.31
2023-04-15T08:02:44.482Z,100356.16
2023-04-15T08:05:14.921Z,100358.83
2023-04-15T08:07:50.119Z,100362.54
2023-04-15T08:10:18.211Z,100357.69
2023-04-15T08:12:49.437Z,100356.54
2023-04-15T08:15:23.500Z,100359.42
2023-04-15T08:17:53.320Z,100354.41
2023-04-15T08:20:22.240Z,100361.73
2023-04-15T08:22:52.252Z,100352.67
2023-04-15T08:25:21.683Z,100356.43
2023-04-15T08:27:56.354Z,100360.09
2023-04-15T08:30:24.636Z,100354.70
2023-04-15T08:32:52.847Z,100350.52
2023-04-15T08:35:26.022Z,100345.60
2023-04-15T08:37:54.849Z,100345.86
2023-04-15T08:40:23.384Z,100348.83
2023-04-15T08:42:51.684Z,100352.90
2023-04-15T08:45:28.348Z,100346.17
2023-04-15T08:47:56.916Z,100344.09
2023-04-15T08:50:25.439Z,100342.70
2023-04-15T08:52:56.599Z,100344.72
2023-04-15T08:55:30.920Z,100349.10
2023-04-15T08:57:59.130Z,100349.88
2023-04-15T09:00:27.846Z,100347.06
2023-04-15T09:02:59.406Z,100349.25
2023-04-15T09:05:27.501Z,100345.48
2023-04-15T09:07:56.065Z,100349.12
2023-04-15T09:10:24.627Z,100345.69
2023-04-15T09:12:53.647Z,100349.13
2023-04-15T09:15:21.996Z,100355.95
2023-04-15T09:17:49.953Z,100351.12
2023-04-15T09:20:19.050Z,100351.83
2023-04-15T09:22:48.185Z,100350.77
2023-04-15T09:25:16.425Z,100349.55
2023-04-15T09:27:51.201Z,100357.23
2023-04-15T09:30:19.107Z,100362.58
2023-04-15T09:33:02.268Z,100357.67
2023-04-15T09:35:31.018Z,100361.06
2023-04-15T09:38:03.777Z,100359.80
2023-04-15T09:40:35.968Z,100358.95
2023-04-15T09:43:05.351Z,100367.55
2023-04-15T09:45:34.318Z,100365.25
2023-04-15T09:48:26.905Z,100363.31
2023-04-15T09:50:58.144Z,100364.48
2023-04-15T09:53:26.085Z,100364.75
2023-04-15T09:55:58.372Z,100364.73
2023-04-15T09:58:30.802Z,100364.92
2023-04-15T10:00:59.665Z,100360.39
2023-04-15T10:03:32.475Z,100358.32
2023-04-15T10:06:00.945Z,100354.27
2023-04-15T10:08:32.869Z,100362.38
2023-04-15T10:11:02.260Z,100366.86
2023-04-15T10:13:36.691Z,100358.67
2023-04-15T10:16:11.420Z,100368.03
2023-04-15T10:18:42.939Z,100366.27
2023-04-15T10:21:10.894Z,100368.20
2023-04-15T10:23:39.280Z,100361.89
2023-04-15T10:26:07.269Z,100371.09
2023-04-15T10:31:35.135Z,100397.84
2023-04-15T10:34:06.528Z,100392.45
2023-04-15T10:36:34.487Z,100390.91
2023-04-15T10:39:02.504Z,100391.34
2023-04-15T10:41:31.430Z,100392.62
2023-04-15T10:44:03.309Z,100396.33
2023-04-15T10:46:44.745Z,100397.61
2023-04-15T10:49:13.469Z,100388.79
2023-04-15T10:51:44.952Z,100384.19
2023-04-15T10:54:25.806Z,100382.84
2023-04-15T10:57:00.144Z,100376.43
2023-04-15T10:59:31.889Z,100374.17
2023-04-15T11:02:04.087Z,100377.34
2023-04-15T11:04:51.524Z,100387.77
2023-04-15T11:07:44.871Z,100388.81
2023-04-15T11:10:20.868Z,100385.04
2023-04-15T11:12:54.442Z,100386.53
2023-04-15T11:15:30.666Z,100385.14
2023-04-15T11:17:59.566Z,100399.29
2023-04-15T11:20:27.564Z,100386.35
2023-04-15T11:23:11.948Z,100391.09
2023-04-15T11:25:44.162Z,100389.36
2023-04-15T11:28:13.223Z,100388.02
2023-04-15T11:30:42.042Z,100389.02
2023-04-15T11:33:12.356Z,100381.85
2023-04-15T11:35:41.886Z,100379.83
2023-04-15T11:38:12.079Z,100376.52
2023-04-15T11:40:40.344Z,100384.31
2023-04-15T11:43:39.666Z,100385.84
2023-04-15T11:46:08.606Z,100392.17
2023-04-15T11:48:36.799Z,100390.30
2023-04-15T11:51:06.184Z,100388.14
2023-04-15T11:53:47.410Z,100392.18
2023-04-15T11:56:19.298Z,100394.41
2023-04-15T11:58:47.560Z,100398.36
2023-04-15T12:01:15.572Z,100399.07
2023-04-15T12:03:45.898Z,100382.64
2023-04-15T12:06:21.228Z,100388.30
2023-04-15T12:08:57.178Z,100394.92
2023-04-15T12:11:26.339Z,100383.20
2023-04-15T12:13:56.785Z,100377.63
2023-04-15T12:16:24.983Z,100377.33
2023-04-15T12:18:55.979Z,100374.48
2023-04-15T12:21:25.218Z,100370.66
2023-04-15T12:23:54.671Z,100370.73
2023-04-15T12:26:27.464Z,100366.61
2023-04-15T12:29:19.220Z,100361.88
2023-04-15T12:31:49.218Z,100367.86
2023-04-15T12:34:17.394Z,100364.70
2023-04-15T12:36:45.533Z,100360.77
2023-04-15T12:39:13.539Z,100359.65
2023-04-15T12:41:41.986Z,100355.23
2023-04-15T12:44:10.440Z,100361.38
2023-04-15T12:46:38.404Z,100351.92
2023-04-15T12:49:06.381Z,100348.56
2023-04-15T12:51:34.542Z,100351.45
2023-04-15T12:54:02.699Z,100345.64
2023-04-15T12:56:31.031Z,100348.23
2023-04-15T12:58:58.915Z,100339.33
2023-04-15T13:01:27.461Z,100337.34
2023-04-15T13:03:56.021Z,100339.43
2023-04-15T13:06:25.207Z,100337.73
2023-04-15T13:08:58.470Z,100345.17
2023-04-15T13:11:27.650Z,100351.23
2023-04-15T13:13:56.974Z,100358.29
2023-04-15T13:16:24.978Z,100353.06
2023-04-15T13:18:52.957Z,100347.08
2023-04-15T13:21:22.704Z,100350.70
2023-04-15T13:23:53.257Z,100350.79
2023-04-15T13:26:21.290Z,100355.78
2023-04-15T13:28:49.310Z,100356.11
2023-04-15T13:31:17.251Z,100352.46
2023-04-15T13:33:45.563Z,100345.19
2023-04-15T13:36:13.589Z,100345.50
2023-04-15T13:38:41.494Z,100352.27
2023-04-15T13:41:09.677Z,100346.97
2023-04-15T13:43:38.309Z,100343.23
2023-04-15T13:46:06.476Z,100353.02
2023-04-15T13:48:36.537Z,100347.22
2023-04-15T13:51:04.604Z,100346.77
2023-04-15T13:53:37.916Z,100350.65
2023-04-15T13:56:07.947Z,100349.34
2023-04-15T13:58:37.081Z,100349.90
2023-04-15T14:01:07.082Z,100353.02
2023-04-15T14:03:37.080Z,100354.79
2023-04-15T14:06:06.221Z,100357.92
2023-04-15T14:08:34.516Z,100355.11
2023-04-15T14:11:02.637Z,100350.86
2023-04-15T14:13:31.310Z,100362.02
2023-04-15T14:15:59.340Z,100348.52
2023-04-15T14:18:27.392Z,100355.43
2023-04-15T14:20:55.642Z,100354.15
2023-04-15T14:23:24.635Z,100353.84
2023-04-15T14:25:53.150Z,100357.58
2023-04-15T14:28:21.051Z,100364.40
2023-04-15T14:30:49.177Z,100357.60
2023-04-15T14:33:17.896Z,100362.85
2023-04-15T14:35:46.485Z,100358.23
2023-04-15T14:38:14.603Z,100358.90
2023-04-15T14:40:42.918Z,100373.39
2023-04-15T14:43:10.941Z,100368.98
2023-04-15T14:45:41.905Z,100364.66
2023-04-15T14:48:12.754Z,100358.86
2023-04-15T14:50:40.905Z,100362.78
2023-04-15T14:53:09.259Z,100374.73
2023-04-15T14:55:37.942Z,100373.64
2023-04-15T14:58:08.273Z,100376.94
2023-04-15T15:00:39.312Z,100380.77
2023-04-15T15:03:13.083Z,100380.83
2023-04-15T15:05:41.953Z,100389.67
2023-04-15T15:08:10.312Z,100394.17
2023-04-15T15:10:48.039Z,100393.77
2023-04-15T15:13:18.874Z,100391.36
2023-04-15T15:15:49.543Z,100389.47
2023-04-15T15:18:19.403Z,100383.68
2023-04-15T15:20:49.568Z,100382.52
2023-04-15T15:23:17.579Z,100382.70
2023-04-15T15:25:46.348Z,100379.21
2023-04-15T15:28:15.572Z,100388.34
2023-04-15T15:30:43.705Z,100384.34
2023-04-15T15:33:11.729Z,100369.73
2023-04-15T15:35:39.900Z,100378.48
2023-04-15T15:38:08.696Z,100385.22
2023-04-15T15:40:37.877Z,100390.12
2023-04-15T15:43:05.785Z,100397.95
2023-04-15T15:45:34.369Z,100386.58
2023-04-15T15:48:02.648Z,100382.80
2023-04-15T15:50:30.936Z,100371.83
2023-04-15T15:52:59.014Z,100366.80
2023-04-15T15:55:27.367Z,100370.94
2023-04-15T15:57:55.564Z,100383.01
2023-04-15T16:00:23.541Z,100378.41
2023-04-15T16:05:29.370Z,100381.36
2023-04-15T16:07:57.340Z,100378.52
2023-04-15T16:10:25.653Z,100382.38
2023-04-15T16:12:53.710Z,100378.23
2023-04-15T16:15:23.338Z,100388.64
2023-04-15T16:17:51.327Z,100382.50
2023-04-15T16:20:19.567Z,100375.67
2023-04-15T16:22:47.609Z,100378.17
2023-04-15T16:25:15.963Z,100372.48
2023-04-15T16:27:58.792Z,100372.81
2023-04-15T16:30:28.908Z,100374.89
2023-04-15T16:32:57.492Z,100387.08
2023-04-15T16:35:25.464Z,100386.01
2023-04-15T16:37:54.413Z,100386.25
2023-04-15T16:40:22.687Z,100384.90
2023-04-15T16:42:52.089Z,100383.00
2023-04-15T16:45:20.335Z,100384.34
2023-04-15T16:47:48.300Z,100384.74
2023-04-15T16:50:16.796Z,100384.24
2023-04-15T16:52:44.992Z,100385.32
2023-04-15T16:55:12.932Z,100376.96
2023-04-15T16:58:00.791Z,100374.72
2023-04-15T17:00:29.376Z,100388.35
2023-04-15T17:02:57.890Z,100384.54
2023-04-15T17:05:27.785Z,100385.38
2023-04-15T17:07:56.007Z,100394.46
2023-04-15T17:10:24.298Z,100392.53
2023-04-15T17:12:52.725Z,100400.64
2023-04-15T17:15:20.663Z,100400.85
2023-04-15T17:17:49.869Z,100403.09
2023-04-15T17:20:18.117Z,100414.77
2023-04-15T17:22:46.687Z,100429.41
2023-04-15T17:25:15.073Z,100435.94
2023-04-15T17:27:44.335Z,100445.63
2023-04-15T17:30:12.325Z,100444.30
2023-04-15T17:32:40.970Z,100451.49
2023-04-15T17:35:09.507Z,100441.42
2023-04-15T17:37:37.980Z,100450.69
2023-04-15T17:40:08.726Z,100458.54
2023-04-15T17:42:37.256Z,100462.34
2023-04-15T17:45:06.325Z,100476.96
2023-04-15T17:47:34.931Z,100490.36
2023-04-15T17:50:03.612Z,100494.06
2023-04-15T17:52:31.912Z,100489.81
2023-04-15T17:54:59.914Z,100501.08
2023-04-15T17:57:27.900Z,100501.39
2023-04-15T17:59:55.873Z,100505.29
2023-04-15T18:02:24.080Z,100512.27
2023-04-15T18:04:52.570Z,100519.10
2023-04-15T18:07:20.781Z,100527.92
2023-04-15T18:09:50.769Z,100536.27
2023-04-15T18:12:18.761Z,100543.33
2023-04-15T18:14:46.906Z,100538.77
2023-04-15T18:17:14.932Z,100536.04
2023-04-15T18:19:43.629Z,100538.02
2023-04-15T18:22:13.805Z,100539.15
2023-04-15T18:24:41.953Z,100533.96
2023-04-15T18:27:10.399Z,100528.54
2023-04-15T18:29:39.041Z,100522.27
2023-04-15T18:32:07.195Z,100518.21
2023-04-15T18:34:35.436Z,100516.91
2023-04-15T18:37:03.801Z,100511.97
2023-04-15T18:39:31.978Z,100508.04
2023-04-15T18:42:00.297Z,100506.86
2023-04-15T18:44:28.769Z,100503.16
2023-04-15T18:46:56.879Z,100505.85
2023-04-15T18:49:27.290Z,100512.14
2023-04-15T18:51:55.717Z,100510.88
2023-04-15T18:54:23.797Z,100507.48
2023-04-15T18:56:52.170Z,100494.30
2023-04-15T18:59:29.991Z,100491.44
2023-04-15T19:01:59.790Z,100489.61
2023-04-15T19:04:29.332Z,100494.83
2023-04-15T19:06:59.007Z,100495.07
2023-04-15T19:09:28.507Z,100497.41
2023-04-15T19:11:56.971Z,100489.89
2023-04-15T19:14:25.083Z,100493.61
2023-04-15T19:16:53.203Z,100487.94
2023-04-15T19:19:21.298Z,100489.59
2023-04-15T19:21:49.934Z,100490.16
2023-04-15T19:24:18.340Z,100490.66
2023-04-15T19:26:48.287Z,100491.06
2023-04-15T19:29:16.376Z,100492.56
2023-04-15T19:31:45.012Z,100481.81
2023-04-15T19:34:13.045Z,100489.20
2023-04-15T19:36:41.112Z,100489.79
2023-04-15T19:39:09.675Z,100491.86
2023-04-15T19:41:39.956Z,100500.67
2023-04-15T19:44:08.206Z,100500.04
2023-04-15T19:46:36.609Z,100506.67
2023-04-15T19:49:04.933Z,100505.89
2023-04-15T19:51:33.302Z,100506.26
2023-04-15T19:54:01.281Z,100501.23
2023-04-15T19:56:29.572Z,100497.10
2023-04-15T19:58:59.732Z,100493.96
2023-04-15T20:01:27.794Z,100500.48
2023-04-15T20:03:56.094Z,100499.90
2023-04-15T20:06:24.722Z,100496.11
2023-04-15T20:08:53.632Z,100495.05
2023-04-15T20:11:22.168Z,100498.62
2023-04-15T20:13:50.766Z,100497.45
2023-04-15T20:16:18.969Z,100504.20
2023-04-15T20:18:46.899Z,100499.98
2023-04-15T20:21:14.843Z,100505.45
2023-04-15T20:23:42.991Z,100505.17
2023-04-15T20:26:11.080Z,100511.55
2023-04-15T20:28:39.439Z,100510.66
2023-04-15T20:31:09.310Z,100506.48
2023-04-15T20:33:37.643Z,100510.17
2023-04-15T20:36:05.791Z,100510.80
2023-04-15T20:38:34.561Z,100508.77
2023-04-15T20:41:02.481Z,100505.08
2023-04-15T20:43:31.236Z,100510.84
2023-04-15T20:46:04.416Z,100512.66
2023-04-15T20:48:41.595Z,100512.88
2023-04-15T20:51:10.121Z,100515.69
2023-04-15T20:53:38.178Z,100511.24
2023-04-15T20:56:06.506Z,100507.33
2023-04-15T20:58:34.407Z,100504.27
2023-04-15T21:01:02.369Z,100506.98
2023-04-15T21:03:30.680Z,100506.14
2023-04-15T21:05:58.797Z,100502.68
2023-04-15T21:08:29.659Z,100503.95
2023-04-15T21:10:57.556Z,100504.80
2023-04-15T21:13:25.633Z,100503.86
2023-04-15T21:15:54.413Z,100506.05
2023-04-15T21:18:23.417Z,100506.09
2023-04-15T21:21:01.259Z,100508.33
2023-04-15T21:23:30.109Z,100511.88
2023-04-15T21:25:58.573Z,100511.02
2023-04-15T21:28:28.156Z,100509.52
2023-04-15T21:30:57.025Z,100511.93
2023-04-15T21:33:25.318Z,100512.55
2023-04-15T21:35:53.737Z,100513.48
2023-04-15T21:38:23.351Z,100521.16
2023-04-15T21:40:51.662Z,100518.14
2023-04-15T21:43:22.966Z,100521.19
2023-04-15T21:46:22.313Z,100522.16
2023-04-15T21:48:41.942Z,100521.98
2023-04-15T21:51:09.848Z,100524.38
2023-04-15T21:53:37.774Z,100525.08
2023-04-15T21:56:08.142Z,100527.27
2023-04-15T21:58:36.283Z,100529.54
2023-04-15T22:01:04.416Z,100533.85
2023-04-15T22:03:34.242Z,100532.11
2023-04-15T22:06:03.179Z,100533.28
2023-04-15T22:08:36.046Z,100528.80
2023-04-15T22:11:21.003Z,100532.95
2023-04-15T22:13:49.081Z,100532.34
2023-04-15T22:16:17.306Z,100529.08
2023-04-15T22:18:45.494Z,100528.16
2023-04-15T22:21:13.818Z,100530.02
2023-04-15T22:23:41.764Z,100530.12
2023-04-15T22:26:09.750Z,100531.47
2023-04-15T22:28:37.942Z,100536.59
2023-04-15T22:31:05.988Z,100527.67
2023-04-15T22:33:35.173Z,100529.14
2023-04-15T22:36:03.297Z,100528.73
2023-04-15T22:38:31.585Z,100526.30
2023-04-15T22:40:59.481Z,100528.33
2023-04-15T22:43:27.945Z,100529.14
2023-04-15T22:48:21.065Z,100548.42
2023-04-15T22:50:49.479Z,100541.46
2023-04-15T22:53:17.904Z,100543.48
2023-04-15T22:55:48.723Z,100544.01
2023-04-15T22:58:18.426Z,100538.79
2023-04-15T23:00:46.776Z,100543.69
2023-04-15T23:03:14.883Z,100541.59
2023-04-15T23:05:45.068Z,100544.59
2023-04-15T23:08:13.007Z,100543.48
2023-04-15T23:10:44.703Z,100541.76
2023-04-15T23:13:12.934Z,100541.20
2023-04-15T23:15:40.981Z,100543.48
2023-04-15T23:18:08.919Z,100544.27
2023-04-15T23:20:36.912Z,100543.98
2023-04-15T23:23:04.962Z,100545.41
2023-04-15T23:25:33.109Z,100546.80
2023-04-15T23:28:01.611Z,100553.92
2023-04-15T23:30:30.133Z,100555.23
2023-04-15T23:32:58.302Z,100559.35
2023-04-15T23:35:27.254Z,100556.16
2023-04-15T23:37:55.224Z,100555.88
2023-04-15T23:40:23.134Z,100556.67
2023-04-15T23:42:51.956Z,100556.54
2023-04-15T23:45:19.849Z,100552.18
2023-04-15T23:47:47.914Z,100556.38
2023-04-15T23:50:16.061Z,100561.05
2023-04-15T23:52:44.580Z,100563.85
2023-04-15T23:55:12.650Z,100565.38
2023-04-15T23:57:41.328Z,100570.09
